Tuesday, October 23, 2018, 9:28 PM EDT
Back to Local

KPVC, Provincetown, Provincetown Municipal Airport

Location: Provincetown, MA, United States Lat: 42.067
Local Time: 9:28 PM EDT ( 1:28 GMT) Lon: -70.217
Time Zone: US/Eastern Elev: 6 ft

Show me the last for .
Show Decoded

2018-10-23 20:56 METAR KPVC 240056Z AUTO 34009KT 10SM FEW075 11/07 A2989 RMK AO2 WSHFT 0015 LTG
                 DSNT NE TSE00 SLP121 T01060072 =
2018-10-23 20:40 METAR KPVC 240040Z AUTO 32009KT 10SM FEW020 SCT070 BKN090 11/07 A2990 RMK AO2
                 WSHFT 0015 LTG DSNT N-SE TSE00 =
2018-10-23 20:26 METAR KPVC 240026Z AUTO 31012G23KT 10SM FEW021 SCT030 BKN050 11/08 A2990 RMK AO2
                 LTG DSNT N-E TSE00 =
2018-10-23 20:04 METAR KPVC 240004Z AUTO 21007KT 10SM SCT013 BKN023 BKN030 13/12 A2988 RMK AO2
                 LTG DSNT NW TSE00 =
2018-10-23 19:56 METAR KPVC 232356Z AUTO 20007KT 10SM VCTS BKN013 BKN023 OVC033 13/12 A2988 RMK
                 AO2 LTG DSNT NW TSB05E32B45RAE2259B28E40 SLP118 P0001 60036 T01280122 10133
                 20111 56015 =
2018-10-23 19:47 METAR KPVC 232347Z AUTO 23010KT 10SM VCTS SCT015 BKN031 BKN070 12/11 A2988 RMK
                 AO2 LTG DSNT E AND NW TSB05E32B45RAE2259B28E40 P0001 =
2018-10-23 19:42 METAR KPVC 232342Z AUTO 29009KT 10SM FEW015 BKN029 BKN046 12/10 A2989 RMK AO2
                 LTG DSNT E AND NW TSB05E32RAE2259B28E40 P0001 =
2018-10-23 19:05 METAR KPVC 232305Z AUTO 18006KT 10SM VCTS SCT014 BKN060 OVC085 13/12 A2990 RMK
                 AO2 LTG DSNT NE TSB05RAE2259 P0000 =
2018-10-23 18:56 METAR KPVC 232256Z AUTO 18007KT 10SM -RA BKN015 BKN024 OVC055 13/12 A2990 RMK
                 AO2 LTG DSNT NE TSB2159E21RAB26 SLP123 P0001 T01330122 =
2018-10-23 18:30 METAR KPVC 232230Z AUTO 19009KT 10SM -RA FEW019 BKN027 OVC085 13/12 A2991 RMK
                 AO2 LTG DSNT NE TSB2159E21RAB26 P0000 =
2018-10-23 18:10 METAR KPVC 232210Z AUTO 16006KT 10SM TS FEW043 BKN060 OVC090 13/12 A2990 RMK AO2
                 LTG DSNT NE AND SW TSB2159 =
2018-10-23 17:56 METAR KPVC 232156Z AUTO 17008KT 10SM SCT016 BKN070 OVC090 12/12 A2990 RMK AO2
                 LTG DSNT NE AND SW TSB24E39RAE31 SLP125 P0006 T01220117 =
2018-10-23 17:39 METAR KPVC 232139Z AUTO 16006KT 10SM BKN014 OVC022 13/12 A2991 RMK AO2 LTG DSNT
                 NE TSB24E39RAE31 P0006 =
2018-10-23 17:24 METAR KPVC 232124Z AUTO 22006KT 10SM VCTS -RA SCT011 BKN017 OVC023 12/11 A2992
                 RMK AO2 LTG DSNT NE AND NW TSB24 P0006 =
2018-10-23 17:10 METAR KPVC 232110Z AUTO 18009G17KT 140V230 8SM -RA FEW009 BKN013 OVC025 12/11
                 A2993 RMK AO2 LTG DSNT N AND SW P0006 =
2018-10-23 16:56 METAR KPVC 232056Z AUTO 11008KT 6SM -RA BR BKN019 OVC028 12/11 A2992 RMK AO2
                 TSB09E24 SLP133 P0008 60028 T01220111 58040 =
2018-10-23 16:25 METAR KPVC 232025Z AUTO 34004KT 10SM -RA SCT014 OVC020 11/09 A2996 RMK AO2
                 TSB09E24 P0003 =
2018-10-23 16:09 METAR KPVC 232009Z AUTO VRB04KT 7SM VCTS -RA BKN013 OVC020 11/09 A2996 RMK AO2
                 TSB09 P0002 =
2018-10-23 15:56 METAR KPVC 231956Z AUTO 30011KT 6SM -RA BR FEW016 BKN021 OVC032 12/11 A2997 RMK
                 AO2 LTG DSNT SW AND W TSB21E48 SLP146 P0014 T01170106 =
2018-10-23 15:51 METAR KPVC 231951Z AUTO VRB06KT 7SM -RA FEW016 BKN021 OVC032 12/11 A2997 RMK AO2
                 LTG DSNT SW AND W TSB21E48 P0013 =
2018-10-23 15:32 METAR KPVC 231932Z AUTO 05005KT 4SM TSRA BR SCT021 OVC032 12/11 A2998 RMK AO2
                 LTG DSNT SW TSB21 P0007 =
2018-10-23 15:09 METAR KPVC 231909Z AUTO 11006KT 5SM -RA BR SCT021 BKN034 OVC050 12/11 A3000 RMK
                 AO2 LTG DSNT SW P0002 =
2018-10-23 14:56 METAR KPVC 231856Z AUTO 13008KT 2 1/2SM RA BR SCT034 BKN045 OVC060 12/11 A3000
                 RMK AO2 VIS 1 3/4V5 RAB29 SLP160 P0006 T01170106 =
2018-10-23 13:56 METAR KPVC 231756Z AUTO 15010KT 10SM FEW070 BKN095 13/09 A3004 RMK AO2 SLP172
                 T01330089 10139 20100 58031 =
2018-10-23 12:56 METAR KPVC 231656Z AUTO 14009KT 10SM BKN090 13/08 A3007 RMK AO2 SLP183 T01280083
                 =
2018-10-23 11:56 METAR KPVC 231556Z AUTO 15009KT 10SM OVC100 12/07 A3011 RMK AO2 SLP196 T01220072
                 =
2018-10-23 10:56 METAR KPVC 231456Z AUTO 14009KT 10SM SCT100 BKN120 12/06 A3013 RMK AO2 SLP203
                 T01170056 58009 =
2018-10-23 09:56 METAR KPVC 231356Z AUTO 15008KT 10SM OVC110 11/06 A3015 RMK AO2 SLP208 T01110056
                 =
2018-10-23 08:56 METAR KPVC 231256Z AUTO 16009KT 10SM BKN100 11/05 A3016 RMK AO2 SLP211 T01110050
                 =
2018-10-23 07:56 METAR KPVC 231156Z AUTO 15007KT 10SM OVC095 10/04 A3016 RMK AO2 SLP213 T01000044
                 10100 20033 56005 =
2018-10-23 06:56 METAR KPVC 231056Z AUTO 15005KT 10SM OVC095 08/04 A3017 RMK AO2 SLP215 T00830039
                 =
2018-10-23 05:56 METAR KPVC 230956Z AUTO 15004KT 10SM SCT060 OVC090 09/04 A3017 RMK AO2 SLP215
                 T00890044 =
2018-10-23 04:56 METAR KPVC 230856Z AUTO 17003KT 10SM OVC085 06/04 A3018 RMK AO2 SLP218 T00610039
                 56012 =
2018-10-23 03:56 METAR KPVC 230756Z AUTO 00000KT 10SM OVC090 06/03 A3018 RMK AO2 SLP220 T00560028
                 =
2018-10-23 02:56 METAR KPVC 230656Z AUTO 00000KT 10SM FEW085 04/02 A3018 RMK AO2 SLP221 T00390017
                 =
2018-10-23 01:56 METAR KPVC 230556Z AUTO 22003KT 10SM BKN060 OVC095 06/02 A3021 RMK AO2 SLP229
                 T00610022 10089 20061 55001 =
2018-10-23 00:56 METAR KPVC 230456Z AUTO 26005KT 10SM BKN055 OVC100 09/02 A3021 RMK AO2 SLP228
                 T00890017 401110039 =
2018-10-22 23:56 METAR KPVC 230356Z AUTO 28006KT 10SM OVC065 09/01 A3021 RMK AO2 SLP230 T00890006
                 =
2018-10-22 22:56 METAR KPVC 230256Z AUTO 27006KT 10SM OVC060 08/01 A3021 RMK AO2 SLP230 T00830006
                 50007 =
2018-10-22 21:56 METAR KPVC 230156Z AUTO 26006KT 10SM FEW110 08/01 A3021 RMK AO2 SLP231 T00780006
                 =

Support USWX by starting your Amazon purchase here.